Fordtran, Texas
Current Conditions -  °F | °C
As of 8:51 AM on Tuesday 21 Oct 2014 (Local Time) from KVCT Reporting Station
Clear Clear  
Wind Chill: 67°   Ceiling: Unl
Heat Index: 67°   Visibility: 10mi
Dew Point: 62°   Wind: 8mph
Humidity: 84%   Direction: 40°NE
Pressure: 30.05"   Gusts: NA
Location:  29.2421°N, 97.0692°W
Report Text: KVCT 211351Z 04007KT 10SM CLR 19/17 A3005 RMK AO2 SLP173 T01940167
Loading
Personal Weather Stations






























Interactive Weather Map
Tropical Storm Tracking
New forecast layout! Learn more

10-Day Weather Forecast

Advertisements
Track Severe Weather on mobile